Time;durP1;ratioP1;P1;durP2;ratioP2;P2;SDS_P1;SDS_P2;PMS_P1;PMS_P2;Temp;Humidity;BMP_temperature;BMP_pressure;BME280_temperature;BME280_humidity;BME280_pressure;Samples;Min_cycle;Max_cycle;Signal;HPM_P1;HPM_P2
2021/06/28 03:32:07;;;;;;;11.73;6.90;;;;;;;19.16;68.43;92774.59;5068522;24;20514;-80
2021/06/28 03:34:32;;;;;;;13.05;7.22;;;;;;;19.13;68.47;92772.63;4772865;30;20414;-80
2021/06/28 03:36:58;;;;;;;12.35;7.30;;;;;;;19.12;68.60;92779.81;4757441;30;20070;-80
2021/06/28 03:39:23;;;;;;;14.25;7.40;;;;;;;19.12;68.41;92777.16;4785663;30;20051;-80
2021/06/28 03:41:49;;;;;;;12.18;7.53;;;;;;;19.11;68.09;92780.13;4790054;29;20058;-81
2021/06/28 03:44:14;;;;;;;11.85;7.18;;;;;;;19.11;68.05;92780.13;4789894;30;20505;-80
2021/06/28 03:46:40;;;;;;;11.65;6.82;;;;;;;19.14;68.10;92784.81;4789889;30;20476;-80
2021/06/28 03:49:06;;;;;;;14.18;6.88;;;;;;;19.16;67.96;92785.22;4785140;30;20134;-80
2021/06/28 03:51:31;;;;;;;14.38;6.90;;;;;;;19.18;67.64;92788.31;4775876;30;20056;-80
2021/06/28 03:53:57;;;;;;;11.15;6.95;;;;;;;19.20;67.67;92794.06;4779877;30;20108;-80
2021/06/28 03:56:23;;;;;;;9.60;6.78;;;;;;;19.21;67.89;92792.97;4788362;30;20055;-80
2021/06/28 03:58:48;;;;;;;10.20;7.00;;;;;;;19.23;67.69;92792.63;4788588;30;20079;-80
2021/06/28 04:01:14;;;;;;;11.55;7.10;;;;;;;19.21;67.79;92787.66;4771862;30;20059;-80
2021/06/28 04:03:40;;;;;;;14.00;6.97;;;;;;;19.23;67.30;92787.31;4789789;30;20057;-80
2021/06/28 04:06:08;;;;;;;14.88;7.15;;;;;;;19.22;67.16;92791.09;4772751;30;20047;-80
2021/06/28 04:08:36;;;;;;;11.13;7.25;;;;;;;19.22;67.47;92789.19;4770431;30;20130;-80
2021/06/28 04:11:03;;;;;;;14.88;7.45;;;;;;;19.21;67.64;92789.56;4787929;30;20075;-80
2021/06/28 04:13:29;;;;;;;13.85;7.32;;;;;;;19.20;67.87;92791.41;4773115;30;20043;-80
2021/06/28 04:15:55;;;;;;;12.15;7.45;;;;;;;19.21;68.22;92795.63;4786354;30;20104;-80
2021/06/28 04:18:22;;;;;;;13.13;7.20;;;;;;;19.21;68.51;92790.31;4789950;30;20058;-80
2021/06/28 04:20:48;;;;;;;11.32;7.53;;;;;;;19.21;68.56;92789.56;4787957;30;20113;-78
2021/06/28 04:23:14;;;;;;;10.43;7.07;;;;;;;19.19;68.63;92797.06;4785423;29;20425;-79
2021/06/28 04:25:40;;;;;;;13.07;6.70;;;;;;;19.17;68.72;92800.06;4784394;29;20039;-80
2021/06/28 04:28:06;;;;;;;11.38;6.80;;;;;;;19.15;69.16;92802.25;4787169;30;20047;-80
2021/06/28 04:30:32;;;;;;;11.70;7.03;;;;;;;19.16;68.89;92803.78;4768824;30;20545;-80
2021/06/28 04:32:58;;;;;;;9.70;7.13;;;;;;;19.17;68.79;92799.28;4773450;30;20060;-80
2021/06/28 04:35:25;;;;;;;12.25;7.10;;;;;;;19.17;68.19;92800.06;4772470;30;20047;-78
2021/06/28 04:37:52;;;;;;;12.13;6.90;;;;;;;19.21;68.40;92805.47;4758013;30;20381;-80
2021/06/28 04:40:21;;;;;;;14.85;8.02;;;;;;;19.25;68.23;92798.38;4785280;30;20054;-80
2021/06/28 04:42:49;;;;;;;10.70;7.38;;;;;;;19.30;68.19;92806.91;4754646;30;20290;-78
2021/06/28 04:45:16;;;;;;;11.82;7.43;;;;;;;19.37;68.30;92810.91;4756058;30;20051;-80
2021/06/28 04:47:42;;;;;;;13.45;7.47;;;;;;;19.41;68.70;92811.75;4775791;30;20055;-80
2021/06/28 04:50:09;;;;;;;13.35;7.80;;;;;;;19.43;68.61;92809.53;4770354;30;20043;-80
2021/06/28 04:52:36;;;;;;;14.48;7.60;;;;;;;19.47;68.55;92816.50;4775726;30;20039;-80
2021/06/28 04:55:04;;;;;;;16.95;7.47;;;;;;;19.53;68.58;92822.38;4785634;30;20522;-80
2021/06/28 04:57:30;;;;;;;11.02;6.85;;;;;;;19.56;68.56;92819.03;4789351;30;20086;-80
2021/06/28 04:59:56;;;;;;;10.95;7.07;;;;;;;19.59;69.41;92815.75;4769516;30;20060;-80
2021/06/28 05:02:21;;;;;;;12.05;7.60;;;;;;;19.66;69.30;92821.25;4772769;30;20086;-80
2021/06/28 05:04:47;;;;;;;11.23;7.00;;;;;;;19.74;69.03;92827.56;4758243;30;20056;-79
2021/06/28 05:07:15;;;;;;;12.20;6.95;;;;;;;19.82;68.50;92825.91;4787404;30;20073;-79
2021/06/28 05:09:42;;;;;;;13.63;7.40;;;;;;;19.92;68.03;92820.91;4785867;30;20052;-78
2021/06/28 05:12:08;;;;;;;16.13;7.20;;;;;;;20.05;67.88;92826.19;4773012;30;20426;-80
2021/06/28 05:14:34;;;;;;;11.07;7.10;;;;;;;20.17;67.54;92820.81;4772629;30;20058;-78
2021/06/28 05:17:00;;;;;;;10.90;7.40;;;;;;;20.31;67.90;92831.88;4758833;30;20056;-79
2021/06/28 05:19:27;;;;;;;14.73;7.68;;;;;;;20.49;67.69;92827.03;4768192;30;20093;-77
2021/06/28 05:21:52;;;;;;;13.15;7.40;;;;;;;20.66;67.16;92830.53;4754706;30;20066;-80
2021/06/28 05:24:18;;;;;;;14.65;7.25;;;;;;;20.82;66.07;92825.22;4776527;30;20039;-80
2021/06/28 05:26:44;;;;;;;13.00;7.38;;;;;;;20.98;65.60;92831.34;4773033;30;20067;-80
2021/06/28 05:29:10;;;;;;;11.27;7.22;;;;;;;21.14;64.77;92836.66;4787076;30;20113;-81
2021/06/28 05:31:35;;;;;;;12.07;6.90;;;;;;;21.32;64.58;92821.91;4769157;29;20102;-82
2021/06/28 05:34:01;;;;;;;24.25;7.30;;;;;;;21.55;64.25;92829.31;4792467;30;20051;-80
2021/06/28 05:36:27;;;;;;;23.98;6.90;;;;;;;21.76;63.76;92827.09;4791977;30;20035;-77
2021/06/28 05:38:53;;;;;;;31.15;7.50;;;;;;;21.92;63.42;92834.28;4768560;30;20594;-80
2021/06/28 05:41:18;;;;;;;32.00;7.30;;;;;;;21.99;62.69;92831.78;4760919;30;20109;-80
2021/06/28 05:43:45;;;;;;;20.50;7.10;;;;;;;22.01;62.14;92824.97;4775572;30;20055;-80
2021/06/28 05:46:12;;;;;;;13.30;7.35;;;;;;;22.07;60.63;92833.47;4775845;30;20051;-80
2021/06/28 05:48:38;;;;;;;16.83;8.02;;;;;;;22.33;61.42;92829.44;4790441;30;20043;-80
2021/06/28 05:51:04;;;;;;;15.13;7.97;;;;;;;22.55;61.23;92831.41;4791869;29;20062;-80
2021/06/28 05:53:30;;;;;;;15.50;7.60;;;;;;;22.44;61.42;92828.53;4772082;30;20051;-79
2021/06/28 05:55:58;;;;;;;13.75;7.47;;;;;;;22.63;60.42;92827.00;4774348;30;20538;-80
2021/06/28 05:58:25;;;;;;;16.52;7.68;;;;;;;23.01;59.32;92825.38;4769033;30;20054;-80
2021/06/28 06:00:52;;;;;;;12.23;6.80;;;;;;;23.52;57.19;92833.09;4766090;30;20051;-79
2021/06/28 06:03:17;;;;;;;10.82;7.30;;;;;;;23.46;57.32;92835.31;4774156;30;20502;-80
2021/06/28 06:05:43;;;;;;;16.55;7.38;;;;;;;23.32;53.99;92824.38;4759949;30;20048;-81
2021/06/28 06:08:09;;;;;;;19.02;6.72;;;;;;;23.21;53.86;92820.75;4772288;30;20051;-80
2021/06/28 06:10:34;;;;;;;10.15;6.82;;;;;;;23.05;54.51;92831.56;4752464;29;20042;-79
2021/06/28 06:13:00;;;;;;;10.38;6.78;;;;;;;22.89;55.49;92828.22;4745716;30;20694;-81
2021/06/28 06:15:25;;;;;;;11.00;7.50;;;;;;;22.71;60.67;92835.88;4773356;29;20049;-81
2021/06/28 06:17:51;;;;;;;14.52;7.65;;;;;;;22.42;60.07;92825.44;4789302;30;20078;-80
2021/06/28 06:20:17;;;;;;;14.93;8.05;;;;;;;22.44;59.79;92835.75;4756476;29;20054;-81
2021/06/28 06:22:43;;;;;;;12.20;7.43;;;;;;;22.51;60.66;92825.22;4757681;30;20059;-81
2021/06/28 06:25:09;;;;;;;12.40;7.32;;;;;;;22.61;59.57;92827.34;4775080;29;20111;-81
2021/06/28 06:27:35;;;;;;;11.82;7.63;;;;;;;22.51;61.04;92835.91;4788069;30;20430;-80
2021/06/28 06:30:01;;;;;;;14.75;7.80;;;;;;;22.72;59.13;92840.88;4775060;29;20078;-79
2021/06/28 06:32:27;;;;;;;13.73;7.47;;;;;;;23.45;57.12;92836.41;4806281;29;20050;-81
2021/06/28 06:34:52;;;;;;;15.95;7.05;;;;;;;23.62;57.44;92834.38;4790423;29;20050;-81
2021/06/28 06:37:18;;;;;;;14.45;7.55;;;;;;;24.21;55.00;92840.97;4792055;30;20130;-81
2021/06/28 06:39:44;;;;;;;8.95;6.72;;;;;;;25.80;49.56;92838.72;4790271;29;20050;-81
2021/06/28 06:42:10;;;;;;;10.50;7.22;;;;;;;25.91;49.32;92844.19;4792191;29;20059;-81
2021/06/28 06:44:36;;;;;;;11.40;7.57;;;;;;;25.81;50.31;92842.94;4792894;29;20039;-81
2021/06/28 06:47:01;;;;;;;14.90;7.80;;;;;;;24.85;51.84;92850.91;4778508;29;20485;-82
2021/06/28 06:49:27;;;;;;;10.55;7.72;;;;;;;24.10;55.46;92840.81;4779276;29;20061;-81
2021/06/28 06:51:53;;;;;;;11.90;7.18;;;;;;;23.74;54.22;92842.19;4791982;29;20493;-82
2021/06/28 06:54:19;;;;;;;13.70;7.57;;;;;;;23.70;55.13;92846.72;4796104;29;20051;-81
2021/06/28 06:56:46;;;;;;;14.05;7.18;;;;;;;23.58;55.76;92846.91;4806001;29;20039;-80
2021/06/28 06:59:11;;;;;;;16.73;8.52;;;;;;;23.38;57.62;92846.22;4806748;29;20096;-82
2021/06/28 07:01:41;;;;;;;12.48;8.05;;;;;;;23.48;57.63;92849.06;4804700;29;20058;-82
2021/06/28 07:04:06;;;;;;;11.73;7.82;;;;;;;23.48;59.54;92843.72;4787250;29;20047;-82
2021/06/28 07:06:32;;;;;;;14.52;7.43;;;;;;;23.55;58.95;92845.72;4809550;29;20051;-84
2021/06/28 07:08:58;;;;;;;13.25;7.80;;;;;;;23.61;58.58;92851.53;4792657;29;20089;-81
2021/06/28 07:11:25;;;;;;;14.02;8.40;;;;;;;23.51;60.40;92854.81;4790770;29;20068;-81
2021/06/28 07:13:51;;;;;;;13.20;8.73;;;;;;;23.10;62.06;92849.19;4798095;29;20149;-80
2021/06/28 07:16:19;;;;;;;16.65;9.30;;;;;;;23.59;60.72;92851.13;4800132;29;20099;-82
2021/06/28 07:18:46;;;;;;;12.88;8.05;;;;;;;24.05;58.76;92853.75;4790115;29;20511;-82
2021/06/28 07:21:11;;;;;;;14.90;9.07;;;;;;;23.86;59.67;92857.28;4804890;29;20482;-82
2021/06/28 07:23:38;;;;;;;17.25;9.13;;;;;;;23.85;59.85;92859.19;4788867;29;20047;-83
2021/06/28 07:26:04;;;;;;;13.15;9.52;;;;;;;24.09;59.56;92858.00;4800617;29;20108;-82
2021/06/28 07:28:32;;;;;;;11.70;8.38;;;;;;;24.12;59.72;92858.41;4784397;29;20467;-80
2021/06/28 07:30:59;;;;;;;13.40;8.68;;;;;;;24.16;59.54;92862.69;4784825;29;20103;-82
2021/06/28 07:33:26;;;;;;;13.93;8.93;;;;;;;24.16;56.56;92862.69;4777258;30;20044;-81
2021/06/28 07:35:52;;;;;;;11.73;8.85;;;;;;;24.58;58.79;92867.03;4773117;30;20067;-81
2021/06/28 07:38:18;;;;;;;19.17;9.02;;;;;;;23.73;59.96;92866.59;4762886;29;20043;-79
2021/06/28 07:40:43;;;;;;;11.77;8.30;;;;;;;24.46;58.09;92872.59;4769727;30;20054;-80
2021/06/28 07:43:09;;;;;;;11.95;8.35;;;;;;;24.56;57.39;92871.97;4783976;30;20435;-79
2021/06/28 07:45:35;;;;;;;12.93;8.32;;;;;;;24.66;55.13;92874.03;4779827;30;20047;-79
2021/06/28 07:48:02;;;;;;;13.55;8.30;;;;;;;24.54;55.70;92876.16;4750044;30;20056;-79
2021/06/28 07:50:29;;;;;;;18.73;9.20;;;;;;;24.60;54.92;92872.03;4770493;30;20052;-79
2021/06/28 07:52:55;;;;;;;16.45;9.13;;;;;;;24.63;56.36;92882.78;4785438;30;20537;-78
2021/06/28 07:55:21;;;;;;;17.20;9.77;;;;;;;24.50;54.31;92874.22;4761701;30;20130;-78
2021/06/28 07:57:47;;;;;;;14.77;9.05;;;;;;;24.48;57.55;92875.72;4759493;30;20105;-77
2021/06/28 08:00:18;;;;;;;13.25;9.07;;;;;;;24.85;55.16;92881.09;4786351;30;20115;-77
2021/06/28 08:02:46;;;;;;;15.80;9.32;;;;;;;24.02;58.81;92871.25;4779451;30;20043;-80
2021/06/28 08:05:15;;;;;;;15.30;9.27;;;;;;;24.13;57.23;92879.44;4770282;30;20063;-79
2021/06/28 08:07:42;;;;;;;15.85;8.60;;;;;;;24.42;56.45;92877.91;4759295;30;20523;-77
2021/06/28 08:10:09;;;;;;;11.35;8.52;;;;;;;24.54;57.71;92879.59;4768175;30;20532;-78
2021/06/28 08:12:35;;;;;;;15.15;7.45;;;;;;;24.71;51.17;92875.59;4757351;30;20486;-78
2021/06/28 08:15:01;;;;;;;12.05;6.90;;;;;;;24.85;51.22;92875.00;4771805;30;20077;-78
2021/06/28 08:17:27;;;;;;;11.70;7.97;;;;;;;24.73;54.85;92878.69;4772260;30;20052;-79
2021/06/28 08:19:52;;;;;;;13.70;8.25;;;;;;;23.60;55.24;92871.38;4788006;30;20062;-78
2021/06/28 08:22:18;;;;;;;13.75;7.85;;;;;;;24.27;56.54;92868.94;4782179;30;20055;-78
2021/06/28 08:24:44;;;;;;;10.27;8.23;;;;;;;24.26;57.03;92870.06;4757524;30;20040;-76
2021/06/28 08:27:10;;;;;;;16.48;8.05;;;;;;;24.64;54.05;92868.25;4775235;30;20050;-78
2021/06/28 08:29:36;;;;;;;11.43;7.65;;;;;;;24.04;53.54;92857.53;4769525;30;20059;-78
2021/06/28 08:32:02;;;;;;;11.60;7.25;;;;;;;24.30;52.06;92865.53;4778683;29;20063;-76
2021/06/28 08:34:27;;;;;;;11.40;6.70;;;;;;;24.33;47.63;92866.69;4780320;29;20050;-77
2021/06/28 08:36:55;;;;;;;13.45;6.88;;;;;;;24.73;48.49;92868.75;4789911;29;20062;-78
2021/06/28 08:39:21;;;;;;;19.90;6.80;;;;;;;25.31;48.18;92869.38;4784765;29;20050;-79
2021/06/28 08:41:49;;;;;;;11.57;6.10;;;;;;;25.77;46.36;92866.28;4785156;29;20051;-79
2021/06/28 08:44:16;;;;;;;11.75;7.22;;;;;;;25.73;47.38;92866.25;4787515;29;20967;-80
2021/06/28 08:46:43;;;;;;;16.33;8.05;;;;;;;25.08;52.19;92875.63;4788449;29;20115;-82
2021/06/28 08:49:09;;;;;;;12.98;7.93;;;;;;;25.49;48.11;92872.19;4789631;29;20107;-81
2021/06/28 08:51:35;;;;;;;12.65;8.02;;;;;;;25.42;52.95;92875.59;4783783;29;20051;-79
2021/06/28 08:54:09;;;;;;;13.65;7.93;;;;;;;25.17;52.11;92879.91;4806149;29;20532;-81
2021/06/28 08:56:37;;;;;;;10.95;7.18;;;;;;;25.64;50.95;92875.75;4780065;30;20410;-80
2021/06/28 08:59:04;;;;;;;12.98;7.85;;;;;;;25.81;51.45;92877.81;4783340;29;20200;-81
2021/06/28 09:01:34;;;;;;;13.23;7.70;;;;;;;25.69;45.17;92870.03;4789485;29;20252;-78
2021/06/28 09:04:01;;;;;;;18.60;8.00;;;;;;;26.02;45.73;92877.19;4782361;29;20078;-78
2021/06/28 09:06:27;;;;;;;11.52;7.88;;;;;;;25.63;46.63;92876.91;4791699;29;20238;-80
2021/06/28 09:09:19;;;;;;;17.08;7.65;;;;;;;25.79;44.92;92877.41;4788444;29;20120;-79
2021/06/28 09:11:50;;;;;;;11.80;6.35;;;;;;;26.33;45.12;92870.47;4803475;29;20074;-78
2021/06/28 09:14:17;;;;;;;14.95;7.10;;;;;;;26.45;45.66;92876.69;4788823;29;20199;-78
2021/06/28 09:16:45;;;;;;;13.23;7.75;;;;;;;26.06;45.54;92878.00;4784069;30;20043;-83
2021/06/28 09:19:18;;;;;;;15.55;7.15;;;;;;;26.27;46.60;92871.22;4801798;29;20127;-79
2021/06/28 09:21:53;;;;;;;12.07;6.90;;;;;;;26.08;46.36;92870.34;4797622;29;20498;-78
2021/06/28 09:24:26;;;;;;;13.80;7.43;;;;;;;26.05;47.51;92876.47;4801355;29;20058;-78
2021/06/28 09:26:55;;;;;;;13.75;7.85;;;;;;;25.94;48.04;92873.72;4805450;29;20080;-78
2021/06/28 09:29:36;;;;;;;12.60;8.63;;;;;;;25.73;51.84;92881.56;4774543;29;20093;-77
2021/06/28 09:32:11;;;;;;;11.80;8.27;;;;;;;25.81;51.70;92883.16;4770439;30;20067;-80
2021/06/28 09:34:40;;;;;;;12.45;8.50;;;;;;;25.27;52.30;92879.28;4773230;29;20079;-79
2021/06/28 09:37:12;;;;;;;12.07;7.78;;;;;;;25.60;51.87;92883.78;4757380;30;20058;-79
2021/06/28 09:39:46;;;;;;;12.80;7.00;;;;;;;25.31;50.24;92872.81;4769561;30;20047;-79
2021/06/28 09:42:15;;;;;;;12.40;6.55;;;;;;;25.93;49.65;92872.16;4766646;30;20154;-79
2021/06/28 09:44:53;;;;;;;13.23;6.90;;;;;;;26.40;47.55;92877.81;4778536;30;20077;-78
2021/06/28 09:47:27;;;;;;;11.32;5.90;;;;;;;25.89;46.59;92876.72;4775108;30;20051;-82
2021/06/28 09:50:12;;;;;;;11.30;5.88;;;;;;;25.90;45.50;92875.59;4764037;30;20113;-81
2021/06/28 09:52:43;;;;;;;10.85;5.72;;;;;;;26.49;45.81;92874.78;4785420;29;20047;-80
2021/06/28 09:55:14;;;;;;;8.60;5.80;;;;;;;26.56;48.48;92870.22;4769283;30;20069;-81
2021/06/28 09:58:21;;;;;;;9.73;6.28;;;;;;;26.49;46.10;92862.13;4775180;30;20575;-78
2021/06/28 10:00:54;;;;;;;7.55;5.75;;;;;;;26.30;45.80;92865.09;4774297;30;20078;-81
2021/06/28 10:03:49;;;;;;;7.38;5.25;;;;;;;26.41;44.37;92865.91;4789433;30;20054;-81
2021/06/28 10:06:27;;;;;;;8.80;5.30;;;;;;;26.11;46.54;92848.13;4773259;30;20077;-78
2021/06/28 10:09:09;;;;;;;13.82;5.80;;;;;;;26.24;44.01;92848.59;4776191;30;20080;-79
2021/06/28 10:11:45;;;;;;;11.23;5.50;;;;;;;26.52;45.93;92849.88;4775667;30;20047;-79
2021/06/28 10:14:12;;;;;;;8.52;5.53;;;;;;;26.16;45.81;92844.31;4775492;30;20051;-80
2021/06/28 10:16:40;;;;;;;10.55;5.15;;;;;;;26.19;46.02;92848.97;4774651;30;20055;-78
2021/06/28 10:19:09;;;;;;;10.00;5.30;;;;;;;26.25;44.39;92852.81;4771970;30;20052;-78
2021/06/28 10:21:36;;;;;;;6.60;4.55;;;;;;;26.48;43.47;92839.13;4778202;30;20050;-77
2021/06/28 10:24:04;;;;;;;9.05;5.20;;;;;;;26.56;43.34;92837.25;4775701;30;20302;-78
2021/06/28 10:26:31;;;;;;;10.10;5.55;;;;;;;26.34;42.74;92844.41;4772121;30;20414;-81
2021/06/28 10:28:58;;;;;;;13.68;5.35;;;;;;;26.96;44.70;92846.97;4745092;30;20477;-81
2021/06/28 10:31:26;;;;;;;7.50;4.78;;;;;;;26.85;41.86;92832.75;4783582;29;20054;-79
2021/06/28 10:33:58;;;;;;;11.75;5.28;;;;;;;26.82;42.99;92835.41;4793066;29;20138;-78
2021/06/28 10:36:31;;;;;;;;;;;;;;;26.60;42.31;92830.00;4795811;29;20051;-78
2021/06/28 10:38:57;;;;;;;10.82;5.72;;;;;;;26.80;43.65;92830.44;4809606;29;19917;-79
2021/06/28 10:41:36;;;;;;;9.38;5.32;;;;;;;26.25;43.90;92834.03;4783970;30;20118;-80
2021/06/28 10:44:04;;;;;;;12.18;5.13;;;;;;;26.37;43.54;92824.91;4791092;29;20062;-78
2021/06/28 10:46:34;;;;;;;9.07;5.60;;;;;;;27.22;42.15;92826.31;4775302;30;20039;-78
2021/06/28 10:49:01;;;;;;;10.35;5.30;;;;;;;26.96;42.03;92825.47;4792222;30;20051;-78
2021/06/28 10:51:40;;;;;;;14.10;5.50;;;;;;;27.05;42.27;92816.28;4789108;30;20057;-78
2021/06/28 10:54:10;;;;;;;9.82;5.50;;;;;;;26.74;43.16;92824.66;4790928;30;20047;-78
2021/06/28 10:56:36;;;;;;;10.13;5.95;;;;;;;26.98;42.42;92822.44;4807538;29;20038;-78
2021/06/28 10:59:16;;;;;;;11.23;5.30;;;;;;;27.52;42.81;92815.19;4808727;29;20086;-77
2021/06/28 11:01:54;;;;;;;9.75;5.75;;;;;;;26.73;41.79;92827.75;4797749;29;20042;-78
2021/06/28 11:04:30;;;;;;;9.15;6.13;;;;;;;26.50;42.49;92819.94;4777010;29;20574;-77
2021/06/28 11:06:59;;;;;;;9.73;5.47;;;;;;;26.60;41.95;92816.56;4809234;29;20042;-77
2021/06/28 11:09:41;;;;;;;10.48;5.53;;;;;;;26.79;43.58;92810.09;4806306;29;20263;-77
2021/06/28 11:12:23;;;;;;;10.98;5.88;;;;;;;26.92;40.46;92823.94;4789472;29;20051;-76
2021/06/28 11:15:09;;;;;;;9.45;5.20;;;;;;;27.24;40.60;92815.19;4805295;29;20087;-76
2021/06/28 11:17:38;;;;;;;14.65;5.40;;;;;;;26.93;40.42;92809.34;4805063;29;20505;-76
2021/06/28 11:20:06;;;;;;;8.95;6.15;;;;;;;27.08;41.12;92812.84;4788733;29;20046;-78
2021/06/28 11:22:41;;;;;;;10.48;5.72;;;;;;;26.79;41.16;92812.78;4817655;29;20082;-77
2021/06/28 11:25:10;;;;;;;12.10;5.70;;;;;;;27.30;41.39;92805.59;4806707;29;20054;-77
2021/06/28 11:27:41;;;;;;;11.70;5.93;;;;;;;27.49;39.00;92805.19;4806562;29;20444;-76
2021/06/28 11:33:13;;;;;;;14.55;5.25;;;;;;;27.32;41.76;92795.22;4788132;30;19974;-77
2021/06/28 11:35:52;;;;;;;10.80;5.55;;;;;;;27.73;40.00;92794.81;4768931;30;20056;-76
2021/06/28 11:38:25;;;;;;;7.50;5.20;;;;;;;27.28;41.26;92802.53;4769661;30;20055;-77
2021/06/28 11:40:58;;;;;;;13.50;5.80;;;;;;;27.04;41.69;92801.31;4768929;30;20087;-77
2021/06/28 11:43:39;;;;;;;11.55;5.72;;;;;;;27.04;41.67;92794.00;4768741;30;20051;-77
2021/06/28 11:46:07;;;;;;;9.63;5.60;;;;;;;27.22;41.21;92793.31;4772578;30;20047;-77
2021/06/28 11:48:55;;;;;;;7.60;5.55;;;;;;;27.31;42.76;92801.75;4788319;30;20054;-77
2021/06/28 11:51:24;;;;;;;12.15;5.57;;;;;;;27.02;41.10;92795.56;4773129;30;20055;-77
2021/06/28 11:53:58;;;;;;;7.65;5.72;;;;;;;26.85;42.50;92795.16;4786920;30;20043;-77
2021/06/28 11:56:56;;;;;;;10.20;5.95;;;;;;;26.96;41.16;92792.50;4772314;30;20572;-77
2021/06/28 11:59:24;;;;;;;12.30;6.88;;;;;;;27.35;41.14;92791.78;4779340;30;20048;-77
2021/06/28 12:02:09;;;;;;;11.43;5.95;;;;;;;27.45;42.79;92791.00;4781743;30;20086;-78
2021/06/28 12:04:36;;;;;;;10.55;6.65;;;;;;;27.48;41.12;92784.09;4766177;30;20040;-79
2021/06/28 12:07:03;;;;;;;10.57;6.30;;;;;;;27.35;41.09;92786.41;4781721;30;20097;-78
2021/06/28 12:09:32;;;;;;;11.52;6.43;;;;;;;27.54;40.97;92786.00;4772861;30;20058;-78
2021/06/28 12:12:12;;;;;;;15.90;7.20;;;;;;;26.51;41.86;92790.03;4787148;30;20426;-78
2021/06/28 12:14:43;;;;;;;10.90;6.80;;;;;;;26.38;43.09;92786.94;4786781;30;20051;-76
2021/06/28 12:17:13;;;;;;;10.40;6.63;;;;;;;25.88;43.63;92788.63;4785538;30;20039;-76
2021/06/28 12:19:43;;;;;;;12.82;6.50;;;;;;;26.21;44.48;92793.00;4785603;30;20059;-76
2021/06/28 12:22:20;;;;;;;13.63;6.63;;;;;;;26.74;44.21;92789.75;4785470;30;20197;-76
2021/06/28 12:24:48;;;;;;;11.43;6.20;;;;;;;27.13;43.47;92778.31;4784439;30;20390;-76
2021/06/28 12:27:20;;;;;;;21.05;6.55;;;;;;;27.35;43.66;92775.66;4767423;30;20505;-77
2021/06/28 12:29:48;;;;;;;10.95;6.38;;;;;;;27.40;43.71;92783.31;4768235;29;20138;-76
2021/06/28 12:32:13;;;;;;;10.82;6.57;;;;;;;27.68;44.53;92776.41;4772562;29;20066;-77
2021/06/28 12:34:44;;;;;;;12.70;6.47;;;;;;;28.42;40.38;92780.06;4787276;29;20047;-77
2021/06/28 12:37:09;;;;;;;13.63;7.32;;;;;;;28.11;41.48;92766.31;4803641;29;20528;-77
2021/06/28 12:39:35;;;;;;;15.88;7.05;;;;;;;27.82;41.91;92763.69;4803764;29;20047;-77
2021/06/28 12:42:19;;;;;;;14.30;6.85;;;;;;;28.53;40.79;92771.94;4786619;29;20127;-77
2021/06/28 12:44:46;;;;;;;12.25;7.18;;;;;;;28.87;39.23;92772.16;4791520;29;20047;-77
2021/06/28 12:47:15;;;;;;;12.20;6.05;;;;;;;28.92;40.64;92773.66;4791848;29;20043;-77
2021/06/28 12:49:41;;;;;;;22.25;6.90;;;;;;;29.14;39.18;92775.06;4791495;29;20054;-77
2021/06/28 12:52:24;;;;;;;11.43;6.10;;;;;;;28.93;39.53;92764.41;4806266;29;20145;-77
2021/06/28 12:55:11;;;;;;;17.35;7.30;;;;;;;29.03;40.50;92768.97;4792137;29;20107;-77
2021/06/28 12:57:39;;;;;;;13.98;6.60;;;;;;;29.04;39.58;92778.56;4791635;29;20081;-77
2021/06/28 13:00:25;;;;;;;10.80;6.53;;;;;;;28.82;38.13;92773.34;4807107;29;20057;-77
2021/06/28 13:03:01;;;;;;;13.30;7.10;;;;;;;28.57;39.95;92770.00;4807758;29;20051;-77
2021/06/28 13:05:50;;;;;;;15.32;6.40;;;;;;;28.69;38.16;92774.16;4791649;29;20051;-77
2021/06/28 13:08:23;;;;;;;14.45;6.30;;;;;;;28.67;40.33;92765.72;4820511;29;20758;-77
2021/06/28 13:11:16;;;;;;;15.77;6.95;;;;;;;28.89;38.22;92769.03;4807217;29;20121;-77
2021/06/28 13:19:14;;;;;;;9.75;6.72;;;;;;;28.19;39.38;92767.06;4806409;29;20483;-77
2021/06/28 13:21:51;;;;;;;12.20;7.10;;;;;;;28.36;39.99;92762.75;4801840;29;20051;-77
2021/06/28 13:24:21;;;;;;;11.07;6.93;;;;;;;28.59;40.55;92773.06;4807463;29;20417;-77
2021/06/28 13:26:49;;;;;;;13.48;6.85;;;;;;;28.71;39.17;92764.56;4790681;29;20043;-77
2021/06/28 13:29:19;;;;;;;10.80;6.90;;;;;;;28.07;40.28;92759.41;4805841;29;20107;-77
2021/06/28 13:31:51;;;;;;;12.95;6.15;;;;;;;27.72;39.92;92755.63;4787324;29;20075;-77
2021/06/28 13:34:17;;;;;;;;;;;;;;;28.18;40.29;92758.22;4772908;30;20051;-77
2021/06/28 13:37:06;;;;;;;10.40;6.80;;;;;;;28.19;38.77;92757.06;4788742;30;19983;-77
2021/06/28 13:39:37;;;;;;;11.82;5.97;;;;;;;28.63;37.99;92755.72;4775570;30;20148;-77
2021/06/28 13:42:04;;;;;;;12.25;6.68;;;;;;;28.94;40.14;92763.25;4794738;29;20050;-77
2021/06/28 13:44:29;;;;;;;14.23;6.85;;;;;;;29.09;39.83;92761.25;4771913;29;20047;-76
2021/06/28 13:46:55;;;;;;;13.82;7.38;;;;;;;28.48;39.69;92761.59;4791101;29;20050;-77
2021/06/28 13:49:27;;;;;;;13.18;6.90;;;;;;;28.25;40.92;92754.72;4788368;29;20051;-77
2021/06/28 13:51:59;;;;;;;11.20;6.82;;;;;;;28.73;40.25;92750.66;4799013;29;20046;-77
2021/06/28 13:54:26;;;;;;;12.75;6.57;;;;;;;29.05;38.94;92762.00;4805028;29;20082;-77
2021/06/28 13:56:52;;;;;;;13.05;6.93;;;;;;;28.17;37.17;92745.16;4796153;29;20051;-77
2021/06/28 13:59:18;;;;;;;11.68;6.43;;;;;;;28.43;39.52;92744.66;4789633;30;20063;-80
2021/06/28 14:01:44;;;;;;;13.30;6.47;;;;;;;28.91;39.47;92755.94;4800182;29;20058;-78
2021/06/28 14:04:10;;;;;;;9.93;6.80;;;;;;;27.97;40.09;92744.84;4811292;29;20054;-79
2021/06/28 14:06:36;;;;;;;13.40;6.80;;;;;;;28.18;39.55;92744.00;4791440;30;20039;-78
2021/06/28 14:09:02;;;;;;;10.00;6.28;;;;;;;28.24;41.04;92745.91;4792308;29;20067;-78
2021/06/28 14:11:28;;;;;;;15.73;6.50;;;;;;;28.52;41.25;92746.19;4799646;29;20072;-78
2021/06/28 14:13:55;;;;;;;14.00;7.88;;;;;;;28.22;38.58;92744.75;4826667;29;20075;-77
2021/06/28 14:16:20;;;;;;;13.57;6.75;;;;;;;28.69;38.06;92745.31;4827768;29;20054;-77
2021/06/28 14:18:46;;;;;;;10.95;6.85;;;;;;;28.68;38.72;92746.47;4810088;29;20050;-78
2021/06/28 14:21:12;;;;;;;15.10;7.63;;;;;;;28.38;39.58;92742.38;4790043;29;20071;-78
2021/06/28 14:23:37;;;;;;;14.65;6.57;;;;;;;28.68;40.45;92741.09;4792427;29;20063;-78
2021/06/28 14:26:03;;;;;;;12.50;6.53;;;;;;;29.04;38.58;92728.13;4808588;29;20083;-78
2021/06/28 14:28:29;;;;;;;10.85;6.93;;;;;;;28.88;36.85;92741.34;4802633;29;20422;-78
2021/06/28 14:30:54;;;;;;;12.20;6.80;;;;;;;28.75;36.73;92732.19;4788084;29;20086;-78
2021/06/28 14:33:20;;;;;;;15.30;6.40;;;;;;;29.09;38.05;92734.28;4790573;30;20055;-78
2021/06/28 14:35:46;;;;;;;11.88;7.20;;;;;;;29.24;36.08;92736.47;4804591;29;20071;-77
2021/06/28 14:38:11;;;;;;;12.48;6.35;;;;;;;29.19;37.46;92734.22;4807835;29;20387;-77
2021/06/28 14:40:56;;;;;;;17.48;6.90;;;;;;;29.15;38.09;92728.09;4791724;29;20066;-77
2021/06/28 14:43:22;;;;;;;16.70;6.97;;;;;;;29.00;37.62;92729.31;4791381;29;20055;-77
2021/06/28 14:46:06;;;;;;;13.10;6.75;;;;;;;28.67;37.04;92728.78;4791508;29;20152;-77
2021/06/28 14:48:31;;;;;;;11.05;6.97;;;;;;;28.49;38.09;92722.75;4808200;29;20050;-77
2021/06/28 14:50:57;;;;;;;11.63;6.15;;;;;;;28.10;39.52;92731.72;4790109;29;20528;-77
2021/06/28 14:53:23;;;;;;;13.18;6.70;;;;;;;28.60;39.05;92720.75;4806582;29;20063;-78
2021/06/28 14:55:49;;;;;;;16.80;6.80;;;;;;;29.13;37.99;92718.88;4806627;29;20142;-78
2021/06/28 14:58:15;;;;;;;10.13;5.95;;;;;;;29.27;37.59;92708.75;4806379;29;20172;-78
2021/06/28 15:00:40;;;;;;;11.38;6.28;;;;;;;29.45;36.62;92716.69;4772707;30;20193;-78
2021/06/28 15:03:27;;;;;;;14.25;6.57;;;;;;;28.81;35.47;92709.84;4775879;30;20052;-79
2021/06/28 15:05:52;;;;;;;15.73;6.38;;;;;;;28.32;37.13;92700.88;4756418;30;20060;-78
2021/06/28 15:11:40;;;;;;;12.82;6.80;;;;;;;28.65;36.56;92701.47;4771858;30;20052;-80
2021/06/28 15:17:37;;;;;;;10.70;6.50;;;;;;;27.91;37.90;92682.59;4772018;30;20054;-77
2021/06/28 15:20:21;;;;;;;10.38;6.22;;;;;;;28.14;37.66;92689.44;4791196;29;20436;-79
2021/06/28 15:22:48;;;;;;;15.52;7.18;;;;;;;27.91;38.55;92685.28;4788648;30;20058;-79